< < Back
Terminal Aerodrome Forecast


Current Version              Previous Versions:   1  2  3  4  5  6  7  8  9  

Terminal Aerodrome Forecast

879
FTUS44 KMRX 061720
TAFCHA
TAF
KCHA 061720Z 0618/0718 36003KT P6SM BKN250
     FM070600 00000KT P6SM SKC=

Latest METAR

652
SAUS80 KWBC 071000 RRB
MTRCHA
METAR KCHA 070953Z AUTO 00000KT 10SM CLR M01/M04 A3018 RMK AO2 SLP224
T10111039


USA.gov is the U.S. government's official web portal to all federal, state and local government web resources and services.